Map

Track Data

SID SEASON NUMBER BASIN SUBBASIN NAME ISO_TIME NATURE LAT LON WMO_WIND WMO_PRES WMO_AGENCY TRACK_TYPE DIST2LAND LANDFALL IFLAG USA_AGENCY USA_ATCF_ID USA_LAT USA_LON USA_RECORD USA_STATUS USA_WIND USA_PRES USA_SSHS USA_R34_NE USA_R34_SE USA_R34_SW USA_R34_NW USA_R50_NE USA_R50_SE USA_R50_SW USA_R50_NW USA_R64_NE USA_R64_SE USA_R64_SW USA_R64_NW USA_POCI USA_ROCI USA_RMW USA_EYE TOKYO_LAT TOKYO_LON TOKYO_GRADE TOKYO_WIND TOKYO_PRES TOKYO_R50_DIR TOKYO_R50_LONG TOKYO_R50_SHORT TOKYO_R30_DIR TOKYO_R30_LONG TOKYO_R30_SHORT TOKYO_LAND CMA_LAT CMA_LON CMA_CAT CMA_WIND CMA_PRES HKO_LAT HKO_LON HKO_CAT HKO_WIND HKO_PRES NEWDELHI_LAT NEWDELHI_LON NEWDELHI_GRADE NEWDELHI_WIND NEWDELHI_PRES NEWDELHI_CI NEWDELHI_DP NEWDELHI_POCI REUNION_LAT REUNION_LON REUNION_TYPE REUNION_WIND REUNION_PRES REUNION_TNUM REUNION_CI REUNION_RMW REUNION_R34_NE REUNION_R34_SE REUNION_R34_SW REUNION_R34_NW REUNION_R50_NE REUNION_R50_SE REUNION_R50_SW REUNION_R50_NW REUNION_R64_NE REUNION_R64_SE REUNION_R64_SW REUNION_R64_NW BOM_LAT BOM_LON BOM_TYPE BOM_WIND BOM_PRES BOM_TNUM BOM_CI BOM_RMW BOM_R34_NE BOM_R34_SE BOM_R34_SW BOM_R34_NW BOM_R50_NE BOM_R50_SE BOM_R50_SW BOM_R50_NW BOM_R64_NE BOM_R64_SE BOM_R64_SW BOM_R64_NW BOM_ROCI BOM_POCI BOM_EYE BOM_POS_METHOD BOM_PRES_METHOD NADI_LAT NADI_LON NADI_CAT NADI_WIND NADI_PRES WELLINGTON_LAT WELLINGTON_LON WELLINGTON_WIND WELLINGTON_PRES DS824_LAT DS824_LON DS824_STAGE DS824_WIND DS824_PRES TD9636_LAT TD9636_LON TD9636_STAGE TD9636_WIND TD9636_PRES TD9635_LAT TD9635_LON TD9635_WIND TD9635_PRES TD9635_ROCI NEUMANN_LAT NEUMANN_LON NEUMANN_CLASS NEUMANN_WIND NEUMANN_PRES MLC_LAT MLC_LON MLC_CLASS MLC_WIND MLC_PRES USA_GUST BOM_GUST BOM_GUST_PER REUNION_GUST REUNION_GUST_PER USA_SEAHGT USA_SEARAD_NE USA_SEARAD_SE USA_SEARAD_SW USA_SEARAD_NW STORM_SPEED STORM_DIR
1872273N12335 1872 22 NA NA NOT_NAMED 1872-09-29 00:00:00 TS 12.4000 -25.4000 main 892 892 _____________O -1 12.4000 -25.4000 TD 30 15 298
1872273N12335 1872 22 NA NA NOT_NAMED 1872-09-29 03:00:00 TS 12.7504 -26.0621 main 953 953 _____________P -1 12.7504 -26.0621 TD 32 15 299
1872273N12335 1872 22 NA NA NOT_NAMED 1872-09-29 06:00:00 TS 13.1000 -26.7000 main 1009 1009 _____________O -1 13.1000 -26.7000 TS 35 14 300
1872273N12335 1872 22 NA NA NOT_NAMED 1872-09-29 09:00:00 TS 13.4497 -27.3002 main 1067 1065 _____________P -1 13.4497 -27.3002 TS 35 14 301
1872273N12335 1872 22 NA NA NOT_NAMED 1872-09-29 12:00:00 TS 13.8000 -27.9000 main 1125 1125 _____________O -1 13.8000 -27.9000 TS 35 14 300
1872273N12335 1872 22 NA NA NOT_NAMED 1872-09-29 15:00:00 TS 14.1574 -28.5501 main 1196 1196 _____________P -1 14.1574 -28.5501 TS 37 14 299
1872273N12335 1872 22 NA NA NOT_NAMED 1872-09-29 18:00:00 TS 14.5000 -29.2000 main 1259 1259 _____________O -1 14.5000 -29.2000 TS 40 14 298
1872273N12335 1872 22 NA NA NOT_NAMED 1872-09-29 21:00:00 TS 14.7997 -29.8004 main 1323 1323 _____________P -1 14.7997 -29.8004 TS 45 13 297
1872273N12335 1872 22 NA NA NOT_NAMED 1872-09-30 00:00:00 TS 15.1000 -30.4000 main 1387 1387 _____________O -1 15.1000 -30.4000 TS 50 14 298
1872273N12335 1872 22 NA NA NOT_NAMED 1872-09-30 03:00:00 TS 15.4424 -31.0501 main 1462 1462 _____________P -1 15.4424 -31.0501 TS 55 14 299
1872273N12335 1872 22 NA NA NOT_NAMED 1872-09-30 06:00:00 TS 15.8000 -31.7000 main 1528 1528 _____________O -1 15.8000 -31.7000 TS 60 14 301
1872273N12335 1872 22 NA NA NOT_NAMED 1872-09-30 09:00:00 TS 16.1572 -32.3002 main 1595 1595 _____________P -1 16.1572 -32.3002 TS 60 14 301
1872273N12335 1872 22 NA NA NOT_NAMED 1872-09-30 12:00:00 TS 16.5000 -32.9000 main 1661 1661 _____________O -1 16.5000 -32.9000 TS 60 14 298
1872273N12335 1872 22 NA NA NOT_NAMED 1872-09-30 15:00:00 TS 16.7924 -33.5429 main 1728 1728 _____________P -1 16.7924 -33.5429 TS 62 14 296
1872273N12335 1872 22 NA NA NOT_NAMED 1872-09-30 18:00:00 TS 17.1000 -34.2000 main 1805 1805 _____________O -1 17.1000 -34.2000 HU 65 14 298
1872273N12335 1872 22 NA NA NOT_NAMED 1872-09-30 21:00:00 TS 17.4621 -34.8355 main 1874 1874 _____________P -1 17.4621 -34.8355 HU 65 15 303
1872273N12335 1872 22 NA NA NOT_NAMED 1872-10-01 00:00:00 TS 17.9000 -35.5000 main 1953 1953 _____________O -1 17.9000 -35.5000 HU 65 17 306
1872273N12335 1872 22 NA NA NOT_NAMED 1872-10-01 03:00:00 TS 18.4275 -36.2425 main 2017 2017 _____________P -1 18.4275 -36.2425 HU 65 18 308
1872273N12335 1872 22 NA NA NOT_NAMED 1872-10-01 06:00:00 TS 19.0000 -37.0000 main 2088 2088 _____________O -1 19.0000 -37.0000 HU 65 18 310
1872273N12335 1872 22 NA NA NOT_NAMED 1872-10-01 09:00:00 TS 19.5870 -37.7001 main 2152 2152 _____________P -1 19.5870 -37.7001 HU 65 17 310
1872273N12335 1872 22 NA NA NOT_NAMED 1872-10-01 12:00:00 TS 20.1000 -38.4000 main 2218 2218 _____________O -1 20.1000 -38.4000 HU 65 16 302
1872273N12335 1872 22 NA NA NOT_NAMED 1872-10-01 15:00:00 TS 20.4374 -39.1507 main 2228 2211 _____________P -1 20.4374 -39.1507 HU 65 15 293
1872273N12335 1872 22 NA NA NOT_NAMED 1872-10-01 18:00:00 TS 20.7000 -39.9000 main 2211 2190 _____________O -1 20.7000 -39.9000 HU 65 15 291
1872273N12335 1872 22 NA NA NOT_NAMED 1872-10-01 21:00:00 TS 20.9698 -40.6231 main 2192 2172 _____________P -1 20.9698 -40.6231 HU 65 14 295
1872273N12335 1872 22 NA NA NOT_NAMED 1872-10-02 00:00:00 TS 21.3000 -41.3000 main 2175 2169 _____________O -1 21.3000 -41.3000 HU 65 14 304
1872273N12335 1872 22 NA NA NOT_NAMED 1872-10-02 03:00:00 TS 21.7695 -41.9077 main 2186 2181 _____________P -1 21.7695 -41.9077 HU 65 15 312
1872273N12335 1872 22 NA NA NOT_NAMED 1872-10-02 06:00:00 TS 22.3000 -42.5000 main 2201 2200 _____________O -1 22.3000 -42.5000 HU 65 16 312
1872273N12335 1872 22 NA NA NOT_NAMED 1872-10-02 09:00:00 TS 22.8001 -43.1651 main 2213 2213 _____________P -1 22.8001 -43.1651 HU 65 16 310
1872273N12335 1872 22 NA NA NOT_NAMED 1872-10-02 12:00:00 TS 23.3000 -43.8000 main 2234 2234 _____________O -1 23.3000 -43.8000 HU 65 15 312
1872273N12335 1872 22 NA NA NOT_NAMED 1872-10-02 15:00:00 TS 23.7847 -44.3381 main 2261 2247 _____________P -1 23.7847 -44.3381 HU 65 14 318
1872273N12335 1872 22 NA NA NOT_NAMED 1872-10-02 18:00:00 TS 24.3000 -44.8000 main 2249 2223 _____________O -1 24.3000 -44.8000 HU 65 14 324
1872273N12335 1872 22 NA NA NOT_NAMED 1872-10-02 21:00:00 TS 24.9075 -45.2448 main 2226 2203 _____________P -1 24.9075 -45.2448 HU 65 14 329
1872273N12335 1872 22 NA NA NOT_NAMED 1872-10-03 00:00:00 TS 25.5000 -45.6000 main 2206 2197 _____________O -1 25.5000 -45.6000 HU 65 12 334
1872273N12335 1872 22 NA NA NOT_NAMED 1872-10-03 03:00:00 TS 25.9798 -45.8306 main 2204 2194 _____________P -1 25.9798 -45.8306 HU 65 10 338
1872273N12335 1872 22 NA NA NOT_NAMED 1872-10-03 06:00:00 TS 26.4000 -46.0000 main 2200 2193 _____________O -1 26.4000 -46.0000 HU 65 9 338
1872273N12335 1872 22 NA NA NOT_NAMED 1872-10-03 09:00:00 TS 26.8075 -46.2076 main 2197 2191 _____________P -1 26.8075 -46.2076 HU 65 9 336
1872273N12335 1872 22 NA NA NOT_NAMED 1872-10-03 12:00:00 TS 27.2000 -46.4000 main 2195 2190 _____________O -1 27.2000 -46.4000 HU 65 9 337
1872273N12335 1872 22 NA NA NOT_NAMED 1872-10-03 15:00:00 TS 27.6000 -46.5799 main 2193 2147 _____________P -1 27.6000 -46.5799 HU 65 8 342
1872273N12335 1872 22 NA NA NOT_NAMED 1872-10-03 18:00:00 TS 28.0000 -46.7000 main 2147 2104 _____________O -1 28.0000 -46.7000 HU 65 8 351
1872273N12335 1872 22 NA NA NOT_NAMED 1872-10-03 21:00:00 TS 28.3925 -46.7227 main 2104 2060 _____________P -1 28.3925 -46.7227 HU 65 8 1
1872273N12335 1872 22 NA NA NOT_NAMED 1872-10-04 00:00:00 TS 28.8000 -46.7000 main 2060 2017 _____________O -1 28.8000 -46.7000 HU 65 9 2
1872273N12335 1872 22 NA NA NOT_NAMED 1872-10-04 03:00:00 TS 29.2425 -46.7148 main 2017 1963 _____________P -1 29.2425 -46.7148 HU 65 9 0
1872273N12335 1872 22 NA NA NOT_NAMED 1872-10-04 06:00:00 TS 29.7000 -46.7000 main 1963 1920 _____________O -1 29.7000 -46.7000 HU 65 9 4
1872273N12335 1872 22 NA NA NOT_NAMED 1872-10-04 09:00:00 TS 30.1500 -46.6299 main 1922 1871 _____________P -1 30.1500 -46.6299 HU 65 9 11
1872273N12335 1872 22 NA NA NOT_NAMED 1872-10-04 12:00:00 TS 30.6000 -46.5000 main 1871 1831 _____________O -1 30.6000 -46.5000 HU 65 9 17
1872273N12335 1872 22 NA NA NOT_NAMED 1872-10-04 15:00:00 TS 31.0500 -46.3150 main 1823 1786 _____________P -1 31.0500 -46.3150 HU 65 10 21
1872273N12335 1872 22 NA NA NOT_NAMED 1872-10-04 18:00:00 TS 31.5000 -46.1000 main 1786 1750 _____________O -1 31.5000 -46.1000 HU 65 10 21
1872273N12335 1872 22 NA NA NOT_NAMED 1872-10-04 21:00:00 TS 31.9499 -45.9072 main 1750 1703 _____________P -1 31.9499 -45.9072 HU 65 10 21
1872273N12335 1872 22 NA NA NOT_NAMED 1872-10-05 00:00:00 TS 32.4000 -45.7000 main 1703 1668 _____________O -1 32.4000 -45.7000 HU 65 10 23
1872273N12335 1872 22 NA NA NOT_NAMED 1872-10-05 03:00:00 TS 32.8500 -45.4574 main 1668 1626 _____________P -1 32.8500 -45.4574 HU 65 10 25
1872273N12335 1872 22 NA NA NOT_NAMED 1872-10-05 06:00:00 TS 33.3000 -45.2000 main 1626 1592 _____________O -1 33.3000 -45.2000 HU 65 10 25
1872273N12335 1872 22 NA NA NOT_NAMED 1872-10-05 09:00:00 TS 33.7499 -44.9571 main 1592 1553 _____________P -1 33.7499 -44.9571 HU 65 10 25
1872273N12335 1872 22 NA NA NOT_NAMED 1872-10-05 12:00:00 TS 34.2000 -44.7000 main 1553 1520 _____________O -1 34.2000 -44.7000 HU 65 10 26
1872273N12335 1872 22 NA NA NOT_NAMED 1872-10-05 15:00:00 TS 34.6499 -44.4147 main 1524 1487 _____________P -1 34.6499 -44.4147 HU 65 10 29
1872273N12335 1872 22 NA NA NOT_NAMED 1872-10-05 18:00:00 TS 35.1000 -44.1000 main 1487 1461 _____________O -1 35.1000 -44.1000 HU 65 11 31
1872273N12335 1872 22 NA NA NOT_NAMED 1872-10-05 21:00:00 TS 35.5575 -43.7500 main 1456 1431 _____________P -1 35.5575 -43.7500 HU 65 11 32
1872273N12335 1872 22 NA NA NOT_NAMED 1872-10-06 00:00:00 TS 36.0000 -43.4000 main 1431 1408 _____________O -1 36.0000 -43.4000 HU 65 10 32
1872273N12335 1872 22 NA NA NOT_NAMED 1872-10-06 03:00:00 TS 36.3997 -43.1066 main 1408 1386 _____________P -1 36.3997 -43.1066 HU 65 9 31
1872273N12335 1872 22 NA NA NOT_NAMED 1872-10-06 06:00:00 TS 36.8000 -42.8000 main 1386 1365 _____________O -1 36.8000 -42.8000 HU 65 10 32
1872273N12335 1872 22 NA NA NOT_NAMED 1872-10-06 09:00:00 TS 37.2497 -42.4371 main 1370 1348 _____________P -1 37.2497 -42.4371 HU 65 11 35
1872273N12335 1872 22 NA NA NOT_NAMED 1872-10-06 12:00:00 TS 37.7000 -42.0000 main 1348 1337 _____________O -1 37.7000 -42.0000 HU 65 11 39
1872273N12335 1872 22 NA NA NOT_NAMED 1872-10-06 15:00:00 TS 38.0983 -41.5603 main 1337 1334 _____________P -1 38.0983 -41.5603 HU 65 12 47
1872273N12335 1872 22 NA NA NOT_NAMED 1872-10-06 18:00:00 TS 38.5000 -40.9000 main 1346 1344 _____________O -1 38.5000 -40.9000 HU 65 996 16 57
1872273N12335 1872 22 NA NA NOT_NAMED 1872-10-06 21:00:00 TS 38.9574 -39.8779 main 1369 1369 _____________P -1 38.9574 -39.8779 HU 62 20 63
1872273N12335 1872 22 NA NA NOT_NAMED 1872-10-07 00:00:00 TS 39.4000 -38.6000 main 1422 1422 _____________O -1 39.4000 -38.6000 TS 60 22 68
1872273N12335 1872 22 NA NA NOT_NAMED 1872-10-07 03:00:00 TS 39.7733 -37.1994 main 1488 1488 _____________P -1 39.7733 -37.1994 TS 57 23 72
1872273N12335 1872 22 NA NA NOT_NAMED 1872-10-07 06:00:00 TS 40.1000 -35.8000 main 1566 1566 _____________O -1 40.1000 -35.8000 TS 55 21 75
1872273N12335 1872 22 NA NA NOT_NAMED 1872-10-07 09:00:00 TS 40.3245 -34.5338 main 1645 1645 _____________P -1 40.3245 -34.5338 TS 52 18 71
1872273N12335 1872 22 NA NA NOT_NAMED 1872-10-07 12:00:00 TS 40.7000 -33.5000 main 1690 1690 _____________O -1 40.7000 -33.5000 TS 50 18 49
1872273N12335 1872 22 NA NA NOT_NAMED 1872-10-07 15:00:00 TS 41.4732 -32.7672 main 1694 1688 _____________P -1 41.4732 -32.7672 TS 47 20 30
1872273N12335 1872 22 NA NA NOT_NAMED 1872-10-07 18:00:00 ET 42.4000 -32.2000 main 1690 1688 _____________O -1 42.4000 -32.2000 EX 45 19 27
1872273N12335 1872 22 NA NA NOT_NAMED 1872-10-07 21:00:00 ET 43.1849 -31.5683 main 1696 1696 _____________P -1 43.1849 -31.5683 EX 42 18 29
1872273N12335 1872 22 NA NA NOT_NAMED 1872-10-08 00:00:00 ET 44.0000 -31.0000 main 1707 1657 _____________O -1 44.0000 -31.0000 EX 40 19 23
1872273N12335 1872 22 NA NA NOT_NAMED 1872-10-08 03:00:00 ET 44.9271 -30.5185 main 1657 1576 _____________P -1 44.9271 -30.5185 EX 40 20 19
1872273N12335 1872 22 NA NA NOT_NAMED 1872-10-08 06:00:00 ET 45.9000 -30.1000 main 1570 1493 _____________O -1 45.9000 -30.1000 EX 40 20 17
1872273N12335 1872 22 NA NA NOT_NAMED 1872-10-08 09:00:00 ET 46.8497 -29.6978 main 1493 1421 _____________P -1 46.8497 -29.6978 EX 37 20 16
1872273N12335 1872 22 NA NA NOT_NAMED 1872-10-08 12:00:00 ET 47.8000 -29.3000 main 1416 1347 _____________O -1 47.8000 -29.3000 EX 35 20 17
1872273N12335 1872 22 NA NA NOT_NAMED 1872-10-08 15:00:00 ET 48.7574 -28.8564 main 1342 1277 _____________P -1 48.7574 -28.8564 EX 35 20 17
1872273N12335 1872 22 NA NA NOT_NAMED 1872-10-08 18:00:00 ET 49.7000 -28.4000 main 1273 1217 _____________O -1 49.7000 -28.4000 EX 35 19 18
1872273N12335 1872 22 NA NA NOT_NAMED 1872-10-08 21:00:00 ET 50.6103 -27.9505 main 1217 1162 _____________P -1 50.6103 -27.9505 EX 32 19 18
1872273N12335 1872 22 NA NA NOT_NAMED 1872-10-09 00:00:00 ET 51.5000 -27.5000 main 1162 _____________O -1 51.5000 -27.5000 EX 30 19 18

About IBTrACS Database

This database is a web-friendly format of International Best Track Archive for Climate Stewardship (IBTrACS), a global best track data archive curated by NOAA dating back to 1842.

Updated: 2021-10-08